createdAt,value
2024-02-03T00:00:02.144Z,606.00
2024-02-03T00:01:02.395Z,611.00
2024-02-03T00:02:02.131Z,612.00
2024-02-03T00:03:02.221Z,607.00
2024-02-03T00:04:02.594Z,623.00
2024-02-03T00:05:02.364Z,608.00
2024-02-03T00:06:02.467Z,618.00
2024-02-03T00:07:02.579Z,607.00
2024-02-03T00:08:02.532Z,605.00
2024-02-03T00:09:02.620Z,608.00
2024-02-03T00:10:02.691Z,608.00
2024-02-03T00:11:02.750Z,612.00
2024-02-03T00:12:02.808Z,609.00
2024-02-03T00:13:02.859Z,612.00
2024-02-03T00:14:02.946Z,613.00
2024-02-03T00:15:03.007Z,614.00
2024-02-03T00:16:03.063Z,611.00
2024-02-03T00:17:03.152Z,618.00
2024-02-03T00:18:03.246Z,616.00
2024-02-03T00:19:03.377Z,611.00
2024-02-03T00:20:03.222Z,615.00
2024-02-03T00:21:03.428Z,618.00
2024-02-03T00:22:03.417Z,621.00
2024-02-03T00:23:03.456Z,616.00
2024-02-03T00:24:03.490Z,611.00
2024-02-03T00:25:03.689Z,618.00
2024-02-03T00:26:03.607Z,613.00
2024-02-03T00:27:03.704Z,616.00
2024-02-03T00:28:03.784Z,629.00
2024-02-03T00:29:03.822Z,616.00
2024-02-03T00:30:03.910Z,619.00
2024-02-03T00:31:04.586Z,614.00
2024-02-03T00:32:04.017Z,630.00
2024-02-03T00:33:04.161Z,619.00
2024-02-03T00:34:04.157Z,622.00
2024-02-03T00:35:04.060Z,615.00
2024-02-03T00:36:04.041Z,620.00
2024-02-03T00:37:04.072Z,620.00
2024-02-03T00:38:04.140Z,615.00
2024-02-03T00:39:04.194Z,623.00
2024-02-03T00:40:04.302Z,619.00
2024-02-03T00:41:04.301Z,615.00
2024-02-03T00:42:04.465Z,621.00
2024-02-03T00:43:04.433Z,621.00
2024-02-03T00:44:04.494Z,638.00
2024-02-03T00:45:04.591Z,630.00
2024-02-03T00:46:04.651Z,629.00
2024-02-03T00:47:04.688Z,630.00
2024-02-03T00:48:04.828Z,622.00
2024-02-03T00:49:04.950Z,623.00
2024-02-03T00:50:04.945Z,626.00
2024-02-03T00:51:05.055Z,628.00
2024-02-03T00:52:05.023Z,623.00
2024-02-03T00:53:05.116Z,616.00
2024-02-03T00:54:05.174Z,628.00
2024-02-03T00:55:05.266Z,627.00
2024-02-03T00:56:05.259Z,630.00
2024-02-03T00:57:05.358Z,628.00
2024-02-03T00:58:05.390Z,621.00
2024-02-03T00:59:05.438Z,612.00
2024-02-03T01:00:05.547Z,618.00
2024-02-03T01:01:05.701Z,617.00
2024-02-03T01:02:05.641Z,620.00
2024-02-03T01:03:05.746Z,626.00
2024-02-03T01:04:05.874Z,615.00
2024-02-03T01:05:05.826Z,628.00
2024-02-03T01:06:06.012Z,611.00
2024-02-03T01:07:05.956Z,620.00
2024-02-03T01:08:05.996Z,615.00
2024-02-03T01:09:06.110Z,612.00
2024-02-03T01:10:06.095Z,623.00
2024-02-03T01:11:06.162Z,619.00
2024-02-03T01:12:06.247Z,607.00
2024-02-03T01:13:06.273Z,618.00
2024-02-03T01:14:06.308Z,611.00
2024-02-03T01:15:06.387Z,616.00
2024-02-03T01:16:06.393Z,615.00
2024-02-03T01:17:06.399Z,616.00
2024-02-03T01:18:06.571Z,606.00
2024-02-03T01:19:06.632Z,615.00
2024-02-03T01:20:06.598Z,612.00
2024-02-03T01:21:06.654Z,617.00
2024-02-03T01:22:06.722Z,615.00
2024-02-03T01:23:06.765Z,610.00
2024-02-03T01:24:06.937Z,614.00
2024-02-03T01:25:06.915Z,614.00
2024-02-03T01:26:06.997Z,618.00
2024-02-03T01:27:07.094Z,621.00
2024-02-03T01:28:07.069Z,628.00
2024-02-03T01:29:07.166Z,624.00
2024-02-03T01:30:07.257Z,617.00
2024-02-03T01:31:07.232Z,615.00
2024-02-03T01:32:07.313Z,617.00
2024-02-03T01:33:07.417Z,621.00
2024-02-03T01:34:07.556Z,621.00
2024-02-03T01:35:07.516Z,622.00
2024-02-03T01:36:07.510Z,619.00
2024-02-03T01:37:07.541Z,618.00
2024-02-03T01:38:07.629Z,624.00
2024-02-03T01:39:07.762Z,634.00
2024-02-03T01:40:07.743Z,618.00
2024-02-03T01:41:07.781Z,618.00
2024-02-03T01:42:07.847Z,620.00
2024-02-03T01:43:07.869Z,616.00
2024-02-03T01:44:07.911Z,620.00
2024-02-03T01:45:08.074Z,623.00
2024-02-03T01:46:08.045Z,620.00
2024-02-03T01:47:08.087Z,619.00
2024-02-03T01:48:08.321Z,621.00
2024-02-03T01:49:08.314Z,627.00
2024-02-03T01:50:08.299Z,622.00
2024-02-03T01:51:08.379Z,628.00
2024-02-03T01:52:08.404Z,633.00
2024-02-03T01:53:08.482Z,621.00
2024-02-03T01:54:08.580Z,624.00
2024-02-03T01:55:08.623Z,628.00
2024-02-03T01:56:08.664Z,628.00
2024-02-03T01:57:08.738Z,626.00
2024-02-03T01:58:08.787Z,621.00
2024-02-03T01:59:08.861Z,628.00
2024-02-03T02:00:09.027Z,626.00
2024-02-03T02:01:09.023Z,630.00
2024-02-03T02:02:09.027Z,627.00
2024-02-03T02:03:09.202Z,624.00
2024-02-03T02:04:09.230Z,620.00
2024-02-03T02:05:09.184Z,617.00
2024-02-03T02:06:09.414Z,619.00
2024-02-03T02:07:09.409Z,623.00
2024-02-03T02:08:09.367Z,629.00
2024-02-03T02:09:09.464Z,625.00
2024-02-03T02:10:09.497Z,622.00
2024-02-03T02:11:09.588Z,619.00
2024-02-03T02:12:09.663Z,624.00
2024-02-03T02:13:09.705Z,626.00
2024-02-03T02:14:09.783Z,618.00
2024-02-03T02:15:09.861Z,623.00
2024-02-03T02:16:09.898Z,629.00
2024-02-03T02:17:09.967Z,630.00
2024-02-03T02:18:10.137Z,635.00
2024-02-03T02:19:10.197Z,624.00
2024-02-03T02:20:10.078Z,620.00
2024-02-03T02:21:10.147Z,636.00
2024-02-03T02:22:10.245Z,624.00
2024-02-03T02:23:10.256Z,632.00
2024-02-03T02:24:10.299Z,629.00
2024-02-03T02:25:10.355Z,634.00
2024-02-03T02:26:10.425Z,632.00
2024-02-03T02:27:10.504Z,632.00
2024-02-03T02:28:10.501Z,641.00
2024-02-03T02:29:10.572Z,632.00
2024-02-03T02:30:10.650Z,637.00
2024-02-03T02:31:10.680Z,629.00
2024-02-03T02:32:10.762Z,629.00
2024-02-03T02:33:10.944Z,637.00
2024-02-03T02:34:10.972Z,629.00
2024-02-03T02:35:10.975Z,623.00
2024-02-03T02:36:11.060Z,622.00
2024-02-03T02:37:11.104Z,614.00
2024-02-03T02:38:11.159Z,627.00
2024-02-03T02:39:11.243Z,627.00
2024-02-03T02:40:11.301Z,621.00
2024-02-03T02:41:11.312Z,625.00
2024-02-03T02:42:11.403Z,619.00
2024-02-03T02:43:11.462Z,624.00
2024-02-03T02:44:11.513Z,622.00
2024-02-03T02:45:11.612Z,616.00
2024-02-03T02:46:11.677Z,622.00
2024-02-03T02:47:11.734Z,622.00
2024-02-03T02:48:11.897Z,618.00
2024-02-03T02:49:11.958Z,614.00
2024-02-03T02:50:11.946Z,626.00
2024-02-03T02:51:12.043Z,621.00
2024-02-03T02:52:12.082Z,622.00
2024-02-03T02:53:12.141Z,620.00
2024-02-03T02:54:12.233Z,623.00
2024-02-03T02:55:12.281Z,616.00
2024-02-03T02:56:12.296Z,617.00
2024-02-03T02:57:12.336Z,611.00
2024-02-03T02:58:12.389Z,619.00
2024-02-03T02:59:12.444Z,616.00
2024-02-03T03:00:12.640Z,618.00
2024-02-03T03:01:12.820Z,621.00
2024-02-03T03:02:12.666Z,615.00
2024-02-03T03:03:12.834Z,619.00
2024-02-03T03:04:12.805Z,613.00
2024-02-03T03:05:13.037Z,611.00
2024-02-03T03:06:12.907Z,611.00
2024-02-03T03:07:12.964Z,605.00
2024-02-03T03:08:13.040Z,617.00
2024-02-03T03:09:13.161Z,623.00
2024-02-03T03:10:13.124Z,611.00
2024-02-03T03:11:13.217Z,605.00
2024-02-03T03:12:13.243Z,618.00
2024-02-03T03:13:13.351Z,614.00
2024-02-03T03:14:13.360Z,608.00
2024-02-03T03:15:13.465Z,609.00
2024-02-03T03:16:13.538Z,614.00
2024-02-03T03:17:13.582Z,604.00
2024-02-03T03:18:13.808Z,610.00
2024-02-03T03:19:13.786Z,610.00
2024-02-03T03:20:13.799Z,616.00
2024-02-03T03:21:13.896Z,619.00
2024-02-03T03:22:13.930Z,605.00
2024-02-03T03:23:14.013Z,605.00
2024-02-03T03:24:14.111Z,606.00
2024-02-03T03:25:14.166Z,616.00
2024-02-03T03:26:14.214Z,602.00
2024-02-03T03:27:14.373Z,615.00
2024-02-03T03:28:14.337Z,605.00
2024-02-03T03:29:16.412Z,602.00
2024-02-03T03:30:14.600Z,612.00
2024-02-03T03:31:14.652Z,613.00
2024-02-03T03:32:14.704Z,606.00
2024-02-03T03:33:14.850Z,609.00
2024-02-03T03:34:15.033Z,609.00
2024-02-03T03:35:14.886Z,605.00
2024-02-03T03:36:14.934Z,605.00
2024-02-03T03:37:14.980Z,606.00
2024-02-03T03:38:15.050Z,614.00
2024-02-03T03:39:15.151Z,607.00
2024-02-03T03:40:15.169Z,599.00
2024-02-03T03:41:15.202Z,615.00
2024-02-03T03:42:15.267Z,611.00
2024-02-03T03:43:15.561Z,603.00
2024-02-03T03:44:15.380Z,606.00
2024-02-03T03:45:15.500Z,613.00
2024-02-03T03:46:15.583Z,615.00
2024-02-03T03:47:15.587Z,600.00
2024-02-03T03:48:15.762Z,607.00
2024-02-03T03:49:15.752Z,617.00
2024-02-03T03:50:15.721Z,610.00
2024-02-03T03:51:15.770Z,615.00
2024-02-03T03:52:15.821Z,610.00
2024-02-03T03:53:15.894Z,607.00
2024-02-03T03:54:16.002Z,609.00
2024-02-03T03:55:16.022Z,621.00
2024-02-03T03:56:16.076Z,618.00
2024-02-03T03:57:16.175Z,607.00
2024-02-03T03:58:16.212Z,614.00
2024-02-03T03:59:16.316Z,612.00
2024-02-03T04:00:16.383Z,619.00
2024-02-03T04:01:16.472Z,621.00
2024-02-03T04:02:16.448Z,619.00
2024-02-03T04:03:16.543Z,622.00
2024-02-03T04:04:16.592Z,606.00
2024-02-03T04:05:16.669Z,614.00
2024-02-03T04:06:16.799Z,614.00
2024-02-03T04:07:16.834Z,622.00
2024-02-03T04:08:16.913Z,610.00
2024-02-03T04:09:17.121Z,620.00
2024-02-03T04:10:17.063Z,608.00
2024-02-03T04:11:17.077Z,615.00
2024-02-03T04:12:17.117Z,609.00
2024-02-03T04:13:17.177Z,615.00
2024-02-03T04:14:17.234Z,608.00
2024-02-03T04:15:17.341Z,611.00
2024-02-03T04:16:17.386Z,611.00
2024-02-03T04:17:17.437Z,608.00
2024-02-03T04:18:17.601Z,610.00
2024-02-03T04:19:17.600Z,602.00
2024-02-03T04:20:17.726Z,616.00
2024-02-03T04:21:17.708Z,603.00
2024-02-03T04:22:17.764Z,611.00
2024-02-03T04:23:17.813Z,611.00
2024-02-03T04:24:17.933Z,618.00
2024-02-03T04:25:17.938Z,612.00
2024-02-03T04:26:18.033Z,613.00
2024-02-03T04:27:18.116Z,617.00
2024-02-03T04:28:18.172Z,608.00
2024-02-03T04:29:18.213Z,606.00
2024-02-03T04:30:23.046Z,610.00
2024-02-03T04:31:19.374Z,610.00
2024-02-03T04:32:18.322Z,610.00
2024-02-03T04:33:18.407Z,613.00
2024-02-03T04:34:18.384Z,616.00
2024-02-03T04:35:18.314Z,620.00
2024-02-03T04:36:18.355Z,610.00
2024-02-03T04:37:18.309Z,602.00
2024-02-03T04:38:18.325Z,621.00
2024-02-03T04:39:18.390Z,616.00
2024-02-03T04:40:18.443Z,614.00
2024-02-03T04:41:18.495Z,605.00
2024-02-03T04:42:18.629Z,616.00
2024-02-03T04:43:18.661Z,610.00
2024-02-03T04:44:26.113Z,600.00
2024-02-03T04:45:26.195Z,600.00
2024-02-03T04:46:26.247Z,600.00
2024-02-03T04:47:26.334Z,600.00
2024-02-03T04:48:26.577Z,600.00
2024-02-03T04:49:26.727Z,600.00
2024-02-03T04:50:26.750Z,608.00
2024-02-03T04:51:26.925Z,602.00
2024-02-03T04:52:26.991Z,612.00
2024-02-03T04:53:27.133Z,608.00
2024-02-03T04:54:27.285Z,600.00
2024-02-03T04:55:27.404Z,608.00
2024-02-03T04:56:27.446Z,614.00
2024-02-03T04:57:27.673Z,619.00
2024-02-03T04:58:27.702Z,603.00
2024-02-03T04:59:27.726Z,599.00
2024-02-03T05:00:27.723Z,612.00
2024-02-03T05:01:27.756Z,613.00
2024-02-03T05:02:29.722Z,600.00
2024-02-03T05:03:27.762Z,615.00
2024-02-03T05:04:27.742Z,601.00
2024-02-03T05:05:27.739Z,609.00
2024-02-03T05:06:27.775Z,606.00
2024-02-03T05:07:27.728Z,606.00
2024-02-03T05:08:27.757Z,607.00
2024-02-03T05:09:27.851Z,601.00
2024-02-03T05:10:27.883Z,608.00
2024-02-03T05:11:27.961Z,605.00
2024-02-03T05:12:28.070Z,613.00
2024-02-03T05:13:28.124Z,604.00
2024-02-03T05:14:28.137Z,608.00
2024-02-03T05:15:28.226Z,613.00
2024-02-03T05:16:28.255Z,611.00
2024-02-03T05:17:28.350Z,609.00
2024-02-03T05:18:28.470Z,620.00
2024-02-03T05:19:28.516Z,617.00
2024-02-03T05:20:28.520Z,607.00
2024-02-03T05:21:28.674Z,613.00
2024-02-03T05:22:28.676Z,611.00
2024-02-03T05:23:28.712Z,621.00
2024-02-03T05:24:28.817Z,616.00
2024-02-03T05:25:28.868Z,626.00
2024-02-03T05:26:28.919Z,615.00
2024-02-03T05:27:29.021Z,610.00
2024-02-03T05:28:29.106Z,618.00
2024-02-03T05:29:29.093Z,623.00
2024-02-03T05:30:29.185Z,611.00
2024-02-03T05:31:29.215Z,619.00
2024-02-03T05:32:29.279Z,629.00
2024-02-03T05:33:29.467Z,616.00
2024-02-03T05:34:29.486Z,618.00
2024-02-03T05:35:29.425Z,610.00
2024-02-03T05:36:29.519Z,620.00
2024-02-03T05:37:29.568Z,609.00
2024-02-03T05:38:29.638Z,610.00
2024-02-03T05:39:29.768Z,610.00
2024-02-03T05:40:29.832Z,610.00
2024-02-03T05:41:29.860Z,608.00
2024-02-03T05:42:29.936Z,619.00
2024-02-03T05:43:29.989Z,609.00
2024-02-03T05:44:30.048Z,608.00
2024-02-03T05:45:30.217Z,605.00
2024-02-03T05:46:30.202Z,611.00
2024-02-03T05:47:30.231Z,606.00
2024-02-03T05:48:30.331Z,612.00
2024-02-03T05:49:30.378Z,607.00
2024-02-03T05:50:30.424Z,606.00
2024-02-03T05:51:30.485Z,612.00
2024-02-03T05:52:30.521Z,613.00
2024-02-03T05:53:30.595Z,626.00
2024-02-03T05:54:30.679Z,613.00
2024-02-03T05:55:30.737Z,628.00
2024-02-03T05:56:30.782Z,625.00
2024-02-03T05:57:30.852Z,627.00
2024-02-03T05:58:30.898Z,628.00
2024-02-03T06:00:31.035Z,614.00
2024-02-03T06:01:31.096Z,616.00
2024-02-03T06:02:31.127Z,615.00
2024-02-03T06:03:31.245Z,618.00
2024-02-03T06:04:31.353Z,625.00
2024-02-03T06:05:31.304Z,630.00
2024-02-03T06:06:32.342Z,621.00
2024-02-03T06:07:31.477Z,620.00
2024-02-03T06:08:31.508Z,614.00
2024-02-03T06:09:31.640Z,620.00
2024-02-03T06:10:31.641Z,623.00
2024-02-03T06:11:31.720Z,620.00
2024-02-03T06:12:31.774Z,620.00
2024-02-03T06:13:31.840Z,617.00
2024-02-03T06:14:31.903Z,615.00
2024-02-03T06:15:32.005Z,621.00
2024-02-03T06:16:32.012Z,626.00
2024-02-03T06:17:32.046Z,617.00
2024-02-03T06:18:32.188Z,628.00
2024-02-03T06:19:32.275Z,624.00
2024-02-03T06:20:32.185Z,622.00
2024-02-03T06:21:32.243Z,620.00
2024-02-03T06:22:32.294Z,623.00
2024-02-03T06:23:32.331Z,618.00
2024-02-03T06:24:32.385Z,620.00
2024-02-03T06:25:32.481Z,625.00
2024-02-03T06:26:32.482Z,606.00
2024-02-03T06:27:32.559Z,614.00
2024-02-03T06:28:32.716Z,619.00
2024-02-03T06:29:32.687Z,617.00
2024-02-03T06:30:32.784Z,627.00
2024-02-03T06:31:32.770Z,609.00
2024-02-03T06:32:32.805Z,620.00
2024-02-03T06:33:32.921Z,610.00
2024-02-03T06:34:33.061Z,622.00
2024-02-03T06:35:32.954Z,613.00
2024-02-03T06:36:33.057Z,622.00
2024-02-03T06:37:33.072Z,621.00
2024-02-03T06:38:33.076Z,621.00
2024-02-03T06:39:33.113Z,613.00
2024-02-03T06:40:33.146Z,613.00
2024-02-03T06:41:33.212Z,616.00
2024-02-03T06:42:33.316Z,618.00
2024-02-03T06:43:33.304Z,616.00
2024-02-03T06:44:33.389Z,622.00
2024-02-03T06:45:33.490Z,615.00
2024-02-03T06:46:33.472Z,623.00
2024-02-03T06:47:33.567Z,625.00
2024-02-03T06:48:33.678Z,624.00
2024-02-03T06:49:33.786Z,625.00
2024-02-03T06:50:37.066Z,625.00
2024-02-03T06:51:33.739Z,631.00
2024-02-03T06:52:33.702Z,627.00
2024-02-03T06:53:33.711Z,623.00
2024-02-03T06:54:33.754Z,631.00
2024-02-03T06:55:33.711Z,618.00
2024-02-03T06:56:33.721Z,636.00
2024-02-03T06:57:33.769Z,634.00
2024-02-03T06:58:33.714Z,633.00
2024-02-03T06:59:33.715Z,630.00
2024-02-03T07:00:33.758Z,632.00
2024-02-03T07:01:33.733Z,630.00
2024-02-03T07:02:33.709Z,627.00
2024-02-03T07:03:33.778Z,635.00
2024-02-03T07:04:33.744Z,624.00
2024-02-03T07:05:33.715Z,626.00
2024-02-03T07:06:33.823Z,626.00
2024-02-03T07:07:33.718Z,633.00
2024-02-03T07:08:33.723Z,634.00
2024-02-03T07:09:33.780Z,627.00
2024-02-03T07:10:33.739Z,628.00
2024-02-03T07:11:33.738Z,627.00
2024-02-03T07:12:33.743Z,626.00
2024-02-03T07:13:33.726Z,626.00
2024-02-03T07:14:33.746Z,625.00
2024-02-03T07:15:33.770Z,628.00
2024-02-03T07:16:33.750Z,617.00
2024-02-03T07:17:33.794Z,624.00
2024-02-03T07:18:33.931Z,631.00
2024-02-03T07:19:33.817Z,626.00
2024-02-03T07:20:33.767Z,629.00
2024-02-03T07:21:33.832Z,628.00
2024-02-03T07:22:33.738Z,632.00
2024-02-03T07:23:33.759Z,644.00
2024-02-03T07:24:33.796Z,638.00
2024-02-03T07:25:33.772Z,633.00
2024-02-03T07:26:33.836Z,637.00
2024-02-03T07:27:33.917Z,639.00
2024-02-03T07:28:33.929Z,638.00
2024-02-03T07:29:33.971Z,643.00
2024-02-03T07:30:34.078Z,642.00
2024-02-03T07:31:34.081Z,644.00
2024-02-03T07:32:34.270Z,652.00
2024-02-03T07:33:34.386Z,648.00
2024-02-03T07:34:34.526Z,648.00
2024-02-03T07:35:34.372Z,646.00
2024-02-03T07:36:34.406Z,644.00
2024-02-03T07:37:34.416Z,648.00
2024-02-03T07:38:34.480Z,651.00
2024-02-03T07:39:34.594Z,650.00
2024-02-03T07:40:34.609Z,647.00
2024-02-03T07:41:34.624Z,641.00
2024-02-03T07:42:34.713Z,638.00
2024-02-03T07:43:34.703Z,638.00
2024-02-03T07:44:34.753Z,640.00
2024-02-03T07:45:34.832Z,637.00
2024-02-03T07:46:34.834Z,637.00
2024-02-03T07:47:34.889Z,639.00
2024-02-03T07:48:34.971Z,636.00
2024-02-03T07:49:34.998Z,637.00
2024-02-03T07:50:34.901Z,636.00
2024-02-03T07:51:34.981Z,634.00
2024-02-03T07:52:34.928Z,639.00
2024-02-03T07:53:34.984Z,636.00
2024-02-03T07:54:35.005Z,636.00
2024-02-03T07:55:34.973Z,638.00
2024-02-03T07:56:34.978Z,637.00
2024-02-03T07:57:35.029Z,638.00
2024-02-03T07:58:35.024Z,639.00
2024-02-03T07:59:35.049Z,641.00
2024-02-03T08:00:35.209Z,634.00
2024-02-03T08:01:35.205Z,638.00
2024-02-03T08:02:35.189Z,633.00
2024-02-03T08:03:35.389Z,639.00
2024-02-03T08:04:35.369Z,636.00
2024-02-03T08:05:35.372Z,637.00
2024-02-03T08:06:35.471Z,638.00
2024-02-03T08:07:35.507Z,643.00
2024-02-03T08:08:35.599Z,641.00
2024-02-03T08:09:35.656Z,641.00
2024-02-03T08:10:35.667Z,645.00
2024-02-03T08:11:35.715Z,643.00
2024-02-03T08:12:35.838Z,644.00
2024-02-03T08:13:35.826Z,639.00
2024-02-03T08:14:35.888Z,641.00
2024-02-03T08:15:35.976Z,639.00
2024-02-03T08:16:35.972Z,642.00
2024-02-03T08:17:36.034Z,634.00
2024-02-03T08:18:36.198Z,637.00
2024-02-03T08:19:36.109Z,637.00
2024-02-03T08:20:36.143Z,638.00
2024-02-03T08:21:36.182Z,640.00
2024-02-03T08:22:36.186Z,644.00
2024-02-03T08:23:36.216Z,643.00
2024-02-03T08:24:36.260Z,640.00
2024-02-03T08:25:36.238Z,644.00
2024-02-03T08:26:36.394Z,644.00
2024-02-03T08:27:36.530Z,641.00
2024-02-03T08:28:36.331Z,644.00
2024-02-03T08:29:36.365Z,643.00
2024-02-03T08:30:36.420Z,639.00
2024-02-03T08:31:36.412Z,642.00
2024-02-03T08:32:36.467Z,646.00
2024-02-03T08:33:36.560Z,647.00
2024-02-03T08:34:36.579Z,646.00
2024-02-03T08:35:36.584Z,649.00
2024-02-03T08:36:36.520Z,648.00
2024-02-03T08:37:36.474Z,652.00
2024-02-03T08:38:36.477Z,647.00
2024-02-03T08:40:36.551Z,650.00
2024-02-03T08:41:36.550Z,651.00
2024-02-03T08:42:36.563Z,657.00
2024-02-03T08:43:36.510Z,657.00
2024-02-03T08:44:36.508Z,656.00
2024-02-03T08:45:36.522Z,660.00
2024-02-03T08:46:36.536Z,660.00
2024-02-03T08:47:36.513Z,659.00
2024-02-03T08:48:36.597Z,661.00
2024-02-03T08:49:36.596Z,660.00
2024-02-03T08:50:36.558Z,657.00
2024-02-03T08:51:36.794Z,663.00
2024-02-03T08:52:36.531Z,665.00
2024-02-03T08:53:36.527Z,665.00
2024-02-03T08:54:36.575Z,663.00
2024-02-03T08:55:36.556Z,670.00
2024-02-03T08:56:36.532Z,665.00
2024-02-03T08:57:36.595Z,669.00
2024-02-03T08:58:36.540Z,667.00
2024-02-03T08:59:36.569Z,677.00
2024-02-03T09:00:36.649Z,672.00
2024-02-03T09:01:36.627Z,666.00
2024-02-03T09:02:36.556Z,676.00
2024-02-03T09:03:36.684Z,677.00
2024-02-03T09:04:36.635Z,679.00
2024-02-03T09:05:36.592Z,676.00
2024-02-03T09:06:36.666Z,678.00
2024-02-03T09:07:36.557Z,678.00
2024-02-03T09:08:36.553Z,676.00
2024-02-03T09:09:36.585Z,678.00
2024-02-03T09:10:36.580Z,686.00
2024-02-03T09:11:36.577Z,685.00
2024-02-03T09:12:36.580Z,683.00
2024-02-03T09:13:36.585Z,682.00
2024-02-03T09:14:36.562Z,677.00
2024-02-03T09:15:36.582Z,681.00
2024-02-03T09:16:36.576Z,674.00
2024-02-03T09:17:36.572Z,681.00
2024-02-03T09:18:36.707Z,680.00
2024-02-03T09:19:36.783Z,689.00
2024-02-03T09:20:36.604Z,688.00
2024-02-03T09:21:36.614Z,691.00
2024-02-03T09:22:36.600Z,694.00
2024-02-03T09:23:36.599Z,695.00
2024-02-03T09:24:36.616Z,697.00
2024-02-03T09:25:37.022Z,703.00
2024-02-03T09:26:36.604Z,704.00
2024-02-03T09:27:36.634Z,712.00
2024-02-03T09:28:36.621Z,706.00
2024-02-03T09:29:36.606Z,713.00
2024-02-03T09:30:36.638Z,715.00
2024-02-03T09:31:36.594Z,710.00
2024-02-03T09:32:36.696Z,711.00
2024-02-03T09:33:36.772Z,698.00
2024-02-03T09:34:36.684Z,711.00
2024-02-03T09:35:36.618Z,719.00
2024-02-03T09:38:36.623Z,720.00
2024-02-03T09:39:36.656Z,719.00
2024-02-03T09:40:36.626Z,727.00
2024-02-03T09:41:36.636Z,724.00
2024-02-03T09:42:36.697Z,724.00
2024-02-03T09:43:36.642Z,729.00
2024-02-03T09:44:36.647Z,730.00
2024-02-03T09:45:36.677Z,736.00
2024-02-03T09:46:36.643Z,734.00
2024-02-03T09:47:36.678Z,729.00
2024-02-03T09:48:36.735Z,733.00
2024-02-03T09:49:36.688Z,732.00
2024-02-03T09:50:36.658Z,724.00
2024-02-03T09:51:36.672Z,726.00
2024-02-03T09:52:36.648Z,722.00
2024-02-03T09:53:36.657Z,713.00
2024-02-03T09:54:36.688Z,712.00
2024-02-03T09:55:36.654Z,715.00
2024-02-03T09:56:36.664Z,705.00
2024-02-03T09:57:36.669Z,707.00
2024-02-03T09:58:36.661Z,703.00
2024-02-03T09:59:36.666Z,701.00
2024-02-03T10:00:36.765Z,707.00
2024-02-03T10:01:36.714Z,705.00
2024-02-03T10:02:36.685Z,697.00
2024-02-03T10:03:36.689Z,701.00
2024-02-03T10:04:36.689Z,700.00
2024-02-03T10:05:36.700Z,702.00
2024-02-03T10:06:36.729Z,701.00
2024-02-03T10:07:36.681Z,701.00
2024-02-03T10:08:36.681Z,695.00
2024-02-03T10:11:36.802Z,701.00
2024-02-03T10:12:36.732Z,701.00
2024-02-03T10:13:36.699Z,699.00
2024-02-03T10:14:36.692Z,703.00
2024-02-03T10:15:36.716Z,701.00
2024-02-03T10:16:36.692Z,703.00
2024-02-03T10:17:36.931Z,699.00
2024-02-03T10:18:36.904Z,695.00
2024-02-03T10:19:36.964Z,694.00
2024-02-03T10:20:36.705Z,693.00
2024-02-03T10:21:36.774Z,693.00
2024-02-03T10:22:36.760Z,683.00
2024-02-03T10:23:36.723Z,686.00
2024-02-03T10:24:36.745Z,674.00
2024-02-03T10:25:36.954Z,680.00
2024-02-03T10:26:36.721Z,671.00
2024-02-03T10:27:36.753Z,673.00
2024-02-03T10:28:36.722Z,672.00
2024-02-03T10:29:36.711Z,669.00
2024-02-03T10:30:36.736Z,666.00
2024-02-03T10:31:38.064Z,663.00
2024-02-03T10:32:36.747Z,664.00
2024-02-03T10:33:36.812Z,663.00
2024-02-03T10:34:36.884Z,660.00
2024-02-03T10:35:36.745Z,659.00
2024-02-03T10:36:36.781Z,659.00
2024-02-03T10:37:36.743Z,657.00
2024-02-03T10:38:36.743Z,657.00
2024-02-03T10:39:36.775Z,656.00
2024-02-03T10:40:36.790Z,656.00
2024-02-03T10:41:36.828Z,653.00
2024-02-03T10:42:36.960Z,651.00
2024-02-03T10:43:36.992Z,650.00
2024-02-03T10:44:37.028Z,651.00
2024-02-03T10:45:37.172Z,650.00
2024-02-03T10:46:37.168Z,645.00
2024-02-03T10:47:37.272Z,645.00
2024-02-03T10:48:37.502Z,643.00
2024-02-03T10:49:37.548Z,644.00
2024-02-03T10:50:37.612Z,643.00
2024-02-03T10:51:37.852Z,644.00
2024-02-03T10:52:37.840Z,641.00
2024-02-03T10:53:37.989Z,641.00
2024-02-03T10:54:38.176Z,639.00
2024-02-03T10:55:38.296Z,639.00
2024-02-03T10:56:38.388Z,637.00
2024-02-03T10:57:38.532Z,638.00
2024-02-03T10:58:38.666Z,638.00
2024-02-03T10:59:38.806Z,637.00
2024-02-03T11:00:39.058Z,635.00
2024-02-03T11:01:39.148Z,634.00
2024-02-03T11:02:39.230Z,633.00
2024-02-03T11:03:39.437Z,632.00
2024-02-03T11:04:39.680Z,633.00
2024-02-03T11:05:39.585Z,632.00
2024-02-03T11:06:39.753Z,632.00
2024-02-03T11:07:39.828Z,630.00
2024-02-03T11:08:39.956Z,629.00
2024-02-03T11:09:40.117Z,628.00
2024-02-03T11:10:40.195Z,626.00
2024-02-03T11:11:40.283Z,626.00
2024-02-03T11:12:40.399Z,625.00
2024-02-03T11:13:40.453Z,624.00
2024-02-03T11:14:40.566Z,623.00
2024-02-03T11:15:40.755Z,623.00
2024-02-03T11:16:40.814Z,621.00
2024-02-03T11:17:40.924Z,620.00
2024-02-03T11:18:41.239Z,620.00
2024-02-03T11:19:41.141Z,619.00
2024-02-03T11:20:41.258Z,618.00
2024-02-03T11:21:41.401Z,619.00
2024-02-03T11:22:41.501Z,616.00
2024-02-03T11:23:41.583Z,614.00
2024-02-03T11:24:41.736Z,614.00
2024-02-03T11:25:41.812Z,612.00
2024-02-03T11:26:41.925Z,612.00
2024-02-03T11:27:42.086Z,611.00
2024-02-03T11:28:42.186Z,606.00
2024-02-03T11:29:42.299Z,603.00
2024-02-03T11:30:42.461Z,603.00
2024-02-03T11:31:42.524Z,601.00
2024-02-03T11:32:42.812Z,600.00
2024-02-03T11:33:42.844Z,600.00
2024-02-03T11:34:43.236Z,600.00
2024-02-03T11:35:42.955Z,600.00
2024-02-03T11:36:43.082Z,601.00
2024-02-03T11:37:43.060Z,600.00
2024-02-03T11:38:43.096Z,600.00
2024-02-03T11:39:43.288Z,601.00
2024-02-03T11:40:43.210Z,600.00
2024-02-03T11:41:43.270Z,603.00
2024-02-03T11:42:43.341Z,600.00
2024-02-03T11:43:43.375Z,600.00
2024-02-03T11:44:43.423Z,601.00
2024-02-03T11:45:43.568Z,601.00
2024-02-03T11:46:43.555Z,600.00
2024-02-03T11:47:43.636Z,600.00
2024-02-03T11:48:43.755Z,600.00
2024-02-03T11:49:43.907Z,601.00
2024-02-03T11:50:43.828Z,600.00
2024-02-03T11:51:43.879Z,601.00
2024-02-03T11:52:43.916Z,601.00
2024-02-03T11:53:43.986Z,600.00
2024-02-03T11:54:44.151Z,600.00
2024-02-03T11:55:44.106Z,601.00
2024-02-03T11:56:44.133Z,600.00
2024-02-03T11:57:44.226Z,600.00
2024-02-03T11:58:44.268Z,600.00
2024-02-03T11:59:44.331Z,600.00
2024-02-03T12:00:44.403Z,600.00
2024-02-03T12:01:44.451Z,600.00
2024-02-03T12:02:44.475Z,600.00
2024-02-03T12:03:44.595Z,600.00
2024-02-03T12:04:44.652Z,601.00
2024-02-03T12:05:44.728Z,602.00
2024-02-03T12:06:44.816Z,600.00
2024-02-03T12:07:44.859Z,601.00
2024-02-03T12:08:44.889Z,601.00
2024-02-03T12:09:44.999Z,600.00
2024-02-03T12:10:45.023Z,603.00
2024-02-03T12:11:45.084Z,600.00
2024-02-03T12:12:45.178Z,601.00
2024-02-03T12:13:45.285Z,600.00
2024-02-03T12:14:45.260Z,600.00
2024-02-03T12:15:45.375Z,600.00
2024-02-03T12:16:45.322Z,600.00
2024-02-03T12:17:45.466Z,603.00
2024-02-03T12:18:45.610Z,601.00
2024-02-03T12:19:45.530Z,600.00
2024-02-03T12:20:45.560Z,601.00
2024-02-03T12:21:45.709Z,601.00
2024-02-03T12:22:45.652Z,603.00
2024-02-03T12:23:45.721Z,604.00
2024-02-03T12:24:45.849Z,604.00
2024-02-03T12:25:45.833Z,602.00
2024-02-03T12:26:45.900Z,600.00
2024-02-03T12:27:46.034Z,601.00
2024-02-03T12:28:46.077Z,600.00
2024-02-03T12:29:46.056Z,601.00
2024-02-03T12:30:46.190Z,601.00
2024-02-03T12:31:46.184Z,601.00
2024-02-03T12:32:46.249Z,601.00
2024-02-03T12:33:46.344Z,604.00
2024-02-03T12:34:46.470Z,602.00